Time;durP1;ratioP1;P1;durP2;ratioP2;P2;SDS_P1;SDS_P2;PMS_P1;PMS_P2;Temp;Humidity;BMP_temperature;BMP_pressure;BME280_temperature;BME280_humidity;BME280_pressure;Samples;Min_cycle;Max_cycle;Signal;HPM_P1;HPM_P2
2022/01/05 00:01:09;;;;;;;52.40;18.33;;;;;;;-0.66;100.00;100955.94;5006384;28;20121;-82
2022/01/05 00:03:35;;;;;;;56.55;20.05;;;;;;;-0.68;100.00;100952.53;5007079;28;20044;-80
2022/01/05 00:06:02;;;;;;;47.70;18.23;;;;;;;-0.78;100.00;100951.41;5023309;28;20033;-81
2022/01/05 00:08:27;;;;;;;44.60;18.73;;;;;;;-0.89;100.00;100966.16;5028901;28;20029;-81
2022/01/05 00:10:53;;;;;;;48.58;17.52;;;;;;;-1.01;100.00;100961.63;5028424;28;20663;-85
2022/01/05 00:13:19;;;;;;;61.72;19.40;;;;;;;-1.15;100.00;100961.66;5033118;28;20035;-82
2022/01/05 00:15:45;;;;;;;62.72;20.23;;;;;;;-1.33;100.00;100964.47;5020758;28;20060;-81
2022/01/05 00:18:11;;;;;;;46.05;19.98;;;;;;;-1.57;100.00;100956.28;5023911;28;20079;-83
2022/01/05 00:20:37;;;;;;;43.08;17.83;;;;;;;-1.82;100.00;100953.44;5021377;28;20485;-83
2022/01/05 00:23:02;;;;;;;38.55;17.95;;;;;;;-1.99;100.00;100957.91;5019421;28;20973;-82
2022/01/05 00:25:28;;;;;;;51.17;19.73;;;;;;;-2.23;100.00;100952.28;5018463;28;20416;-84
2022/01/05 00:27:54;;;;;;;53.83;21.13;;;;;;;-2.40;100.00;100956.84;5035392;28;20491;-83
2022/01/05 00:30:20;;;;;;;60.33;22.92;;;;;;;-2.60;100.00;100948.28;5039168;28;20033;-82
2022/01/05 00:32:45;;;;;;;66.47;24.23;;;;;;;-2.75;100.00;100936.84;5030323;28;20302;-82
2022/01/05 00:35:11;;;;;;;64.22;25.80;;;;;;;-2.71;100.00;100948.03;5013542;28;20128;-81
2022/01/05 00:37:37;;;;;;;58.85;23.08;;;;;;;-2.72;100.00;100943.72;5038098;28;20033;-82
2022/01/05 00:40:04;;;;;;;67.43;23.27;;;;;;;-2.70;100.00;100942.72;5024521;28;20041;-80
2022/01/05 00:42:30;;;;;;;58.60;18.70;;;;;;;-2.55;100.00;100959.41;5034501;28;20036;-79
2022/01/05 00:44:56;;;;;;;43.47;17.38;;;;;;;-2.38;100.00;100945.28;5036758;28;20292;-83
2022/01/05 00:47:21;;;;;;;45.00;17.85;;;;;;;-2.36;100.00;100953.09;5035285;28;20037;-80
2022/01/05 00:49:47;;;;;;;33.05;14.93;;;;;;;-2.40;100.00;100949.78;5020198;28;20059;-81
2022/01/05 00:52:13;;;;;;;38.75;16.73;;;;;;;-2.46;100.00;100942.22;5003259;28;20501;-81
2022/01/05 00:54:40;;;;;;;39.17;15.75;;;;;;;-2.61;100.00;100948.38;5037643;28;20067;-80
2022/01/05 00:57:06;;;;;;;36.78;14.68;;;;;;;-2.79;100.00;100945.84;5030010;28;20056;-81
2022/01/05 00:59:32;;;;;;;43.35;15.43;;;;;;;-2.97;100.00;100947.69;5031159;28;20033;-80
2022/01/05 01:01:58;;;;;;;37.65;15.90;;;;;;;-3.10;100.00;100946.66;5024209;28;20032;-82
2022/01/05 01:04:24;;;;;;;35.50;15.50;;;;;;;-3.16;100.00;100947.00;5009070;28;20379;-80
2022/01/05 01:06:50;;;;;;;33.42;14.80;;;;;;;-3.32;100.00;100941.72;5035132;28;20120;-81
2022/01/05 01:09:15;;;;;;;40.58;15.10;;;;;;;-3.36;100.00;100930.53;5040846;28;20102;-80
2022/01/05 01:11:41;;;;;;;29.90;10.73;;;;;;;-3.48;100.00;100893.53;5037308;28;20119;-81
2022/01/05 01:14:13;;;;;;;31.13;12.35;;;;;;;-3.03;100.00;100941.94;5036879;28;20124;-82
2022/01/05 01:16:38;;;;;;;37.65;14.18;;;;;;;-3.03;100.00;100923.53;5037194;28;20040;-82
2022/01/05 01:19:04;;;;;;;36.22;14.48;;;;;;;-3.07;100.00;100935.97;5037779;28;20486;-82
2022/01/05 01:21:30;;;;;;;40.05;15.35;;;;;;;-3.23;100.00;100930.69;5033971;28;20386;-81
2022/01/05 01:23:56;;;;;;;31.83;12.88;;;;;;;-3.44;100.00;100939.75;5036811;28;20090;-82
2022/01/05 01:26:23;;;;;;;32.38;10.60;;;;;;;-3.36;100.00;100948.94;5037061;28;20382;-81
2022/01/05 01:28:49;;;;;;;20.30;9.23;;;;;;;-3.24;100.00;100944.78;5002192;28;20104;-79
2022/01/05 01:31:15;;;;;;;27.33;10.82;;;;;;;-3.19;100.00;100942.78;5033049;28;20394;-80
2022/01/05 01:33:40;;;;;;;41.45;14.98;;;;;;;-3.34;100.00;100940.97;5021057;28;20040;-79
2022/01/05 01:36:06;;;;;;;52.90;17.02;;;;;;;-3.54;100.00;100942.03;5007906;28;20045;-81
2022/01/05 01:38:32;;;;;;;47.95;16.83;;;;;;;-3.55;100.00;100946.44;5002710;28;20275;-82
2022/01/05 01:40:57;;;;;;;46.15;15.88;;;;;;;-3.62;100.00;100945.06;5037436;28;20086;-82
2022/01/05 01:43:23;;;;;;;43.63;16.23;;;;;;;-3.79;100.00;100937.19;5007566;28;20083;-80
2022/01/05 01:45:49;;;;;;;38.20;13.45;;;;;;;-3.82;100.00;100950.50;5002248;28;20503;-80
2022/01/05 01:48:15;;;;;;;41.17;14.98;;;;;;;-3.74;100.00;100945.69;5002236;28;20082;-81
2022/01/05 01:50:40;;;;;;;63.88;20.45;;;;;;;-3.68;100.00;100936.63;5019992;28;20033;-83
2022/01/05 01:53:06;;;;;;;44.55;16.67;;;;;;;-3.61;100.00;100938.03;5000063;28;20067;-80
2022/01/05 01:55:32;;;;;;;69.43;22.90;;;;;;;-3.61;100.00;100957.25;5020766;28;20033;-81
2022/01/05 01:57:58;;;;;;;48.33;16.60;;;;;;;-3.76;100.00;100956.31;5036207;28;20021;-82
2022/01/05 02:00:24;;;;;;;51.40;17.67;;;;;;;-4.00;100.00;100932.13;5002444;28;20041;-82
2022/01/05 02:02:51;;;;;;;49.75;16.85;;;;;;;-4.00;100.00;100949.66;5003999;28;20378;-80
2022/01/05 02:05:17;;;;;;;41.33;15.57;;;;;;;-3.98;100.00;100961.78;5019581;28;20025;-80
2022/01/05 02:07:43;;;;;;;25.90;12.32;;;;;;;-3.81;100.00;100966.19;5011335;28;20037;-80
2022/01/05 02:10:10;;;;;;;37.22;14.23;;;;;;;-3.71;100.00;100969.19;5029363;28;20040;-81
2022/01/05 02:12:36;;;;;;;63.45;21.17;;;;;;;-3.67;100.00;100968.09;5008769;28;20040;-79
2022/01/05 02:15:03;;;;;;;71.28;21.67;;;;;;;-3.69;100.00;100967.34;5004025;28;20036;-80
2022/01/05 02:17:43;;;;;;;42.63;15.15;;;;;;;-3.70;100.00;100970.06;5029048;28;20037;-82
2022/01/05 02:20:14;;;;;;;75.63;21.33;;;;;;;-3.63;100.00;100974.03;5016675;28;20333;-80
2022/01/05 02:22:40;;;;;;;25.48;12.45;;;;;;;-3.54;100.00;100977.06;5011136;28;20056;-80
2022/01/05 02:25:06;;;;;;;45.67;17.83;;;;;;;-3.39;100.00;100985.06;5013479;28;20086;-81
2022/01/05 02:27:32;;;;;;;49.95;13.23;;;;;;;-3.24;100.00;100981.63;5009084;28;20060;-81
2022/01/05 02:29:57;;;;;;;39.72;14.93;;;;;;;-3.04;100.00;100974.41;5053784;28;20024;-81
2022/01/05 02:32:23;;;;;;;57.50;18.85;;;;;;;-3.02;100.00;100969.94;5015587;28;20028;-80
2022/01/05 02:34:49;;;;;;;46.33;16.00;;;;;;;-3.03;100.00;100978.78;5028086;28;20521;-79
2022/01/05 02:37:15;;;;;;;40.15;16.08;;;;;;;-3.22;100.00;100957.88;5025076;28;20096;-81
2022/01/05 02:39:41;;;;;;;37.20;16.00;;;;;;;-3.17;100.00;100988.25;5025182;28;20033;-80
2022/01/05 02:42:07;;;;;;;34.65;14.32;;;;;;;-3.15;100.00;100990.78;5037516;28;20246;-83
2022/01/05 02:44:32;;;;;;;33.15;12.52;;;;;;;-2.97;100.00;100986.31;5021013;28;20033;-82
2022/01/05 02:47:00;;;;;;;32.25;11.07;;;;;;;-2.74;100.00;100977.16;5037154;28;20040;-81
2022/01/05 02:49:29;;;;;;;21.63;9.60;;;;;;;-2.45;100.00;100979.00;5004462;28;20033;-81
2022/01/05 02:51:54;;;;;;;31.80;12.40;;;;;;;-2.32;100.00;100992.34;5036699;28;20040;-82
2022/01/05 02:54:20;;;;;;;27.80;10.63;;;;;;;-2.27;100.00;100981.53;5038983;28;20029;-81
2022/01/05 02:56:46;;;;;;;28.73;11.15;;;;;;;-2.15;100.00;100998.41;5012457;28;20033;-81
2022/01/05 02:59:11;;;;;;;24.75;9.63;;;;;;;-2.10;100.00;100999.84;5022522;28;20036;-82
2022/01/05 03:01:38;;;;;;;17.88;7.93;;;;;;;-2.03;100.00;100995.09;5038034;28;20029;-83
2022/01/05 03:04:05;;;;;;;20.33;8.32;;;;;;;-1.97;100.00;100997.34;5035061;28;20467;-81
2022/01/05 03:06:30;;;;;;;24.35;11.00;;;;;;;-1.97;100.00;100997.34;5021329;28;20049;-80
2022/01/05 03:08:56;;;;;;;26.67;10.73;;;;;;;-1.91;100.00;101001.41;5021633;28;20406;-79
2022/01/05 03:11:21;;;;;;;19.95;6.80;;;;;;;-1.90;100.00;100997.84;5038810;28;20421;-82
2022/01/05 03:13:49;;;;;;;24.30;8.88;;;;;;;-1.86;100.00;100999.34;5041603;28;20044;-81
2022/01/05 03:16:14;;;;;;;22.90;9.43;;;;;;;-1.85;100.00;100996.66;5015234;28;20037;-81
2022/01/05 03:18:40;;;;;;;22.75;8.55;;;;;;;-1.80;100.00;100999.84;5031211;28;20403;-81
2022/01/05 03:21:05;;;;;;;21.63;9.82;;;;;;;-1.75;100.00;101002.19;5007552;28;20029;-82
2022/01/05 03:23:31;;;;;;;22.42;9.38;;;;;;;-1.66;100.00;101016.66;5046534;28;20031;-81
2022/01/05 03:25:57;;;;;;;18.52;9.00;;;;;;;-1.68;100.00;101007.97;5015597;28;20029;-80
2022/01/05 03:28:22;;;;;;;16.30;8.65;;;;;;;-1.63;100.00;101016.47;5036122;28;20029;-81
2022/01/05 03:30:48;;;;;;;18.63;8.80;;;;;;;-1.67;100.00;101014.94;5049801;28;20134;-83
2022/01/05 03:33:19;;;;;;;22.95;9.38;;;;;;;-1.63;100.00;101021.72;5008402;28;20040;-82
2022/01/05 03:35:46;;;;;;;18.80;8.27;;;;;;;-1.64;100.00;101020.00;5024012;28;20041;-83
2022/01/05 03:38:15;;;;;;;18.77;8.88;;;;;;;-1.65;100.00;101024.44;5021176;28;20059;-80
2022/01/05 03:40:42;;;;;;;19.73;8.55;;;;;;;-1.66;100.00;101019.28;5037787;28;20032;-84
2022/01/05 03:43:08;;;;;;;50.20;13.13;;;;;;;-1.62;100.00;101018.16;5038716;28;20068;-80
2022/01/05 03:45:35;;;;;;;49.60;14.82;;;;;;;-1.50;100.00;101027.97;5023273;28;20120;-82
2022/01/05 03:48:02;;;;;;;43.53;12.68;;;;;;;-1.47;100.00;101025.16;5041167;28;20063;-82
2022/01/05 03:50:28;;;;;;;43.45;13.07;;;;;;;-1.35;100.00;101037.59;5037023;28;20488;-82
2022/01/05 03:52:53;;;;;;;42.55;13.55;;;;;;;-1.37;100.00;101036.00;5033914;28;20042;-80
2022/01/05 03:55:19;;;;;;;34.60;11.32;;;;;;;-1.40;100.00;101037.03;5021383;28;20119;-81
2022/01/05 03:57:45;;;;;;;46.38;13.43;;;;;;;-1.39;100.00;101043.16;5041276;28;20032;-83
2022/01/05 04:00:11;;;;;;;33.28;10.75;;;;;;;-1.50;100.00;101032.41;5038750;28;20068;-82
2022/01/05 04:02:36;;;;;;;38.97;11.93;;;;;;;-1.60;100.00;101046.13;5023309;28;20131;-80
2022/01/05 04:05:02;;;;;;;37.20;9.35;;;;;;;-1.82;100.00;101022.81;5012685;28;20557;-83
2022/01/05 04:07:28;;;;;;;27.35;10.23;;;;;;;-1.81;100.00;101040.31;5036285;28;20036;-82
2022/01/05 04:09:54;;;;;;;30.10;9.70;;;;;;;-2.01;100.00;101041.50;5035581;28;20022;-82
2022/01/05 04:12:19;;;;;;;25.70;9.05;;;;;;;-2.24;100.00;101044.56;5042830;28;20048;-81
2022/01/05 04:14:45;;;;;;;21.02;7.03;;;;;;;-2.46;100.00;101045.78;5030446;28;20045;-81
2022/01/05 04:17:11;;;;;;;19.25;7.03;;;;;;;-2.53;100.00;101052.31;5022907;28;20028;-82
2022/01/05 04:19:36;;;;;;;26.95;8.20;;;;;;;-2.64;100.00;101046.81;5053810;28;20509;-81
2022/01/05 04:22:02;;;;;;;18.80;7.40;;;;;;;-2.80;100.00;101036.25;5027842;28;20463;-80
2022/01/05 04:24:28;;;;;;;22.83;8.77;;;;;;;-2.96;100.00;101048.53;5048344;28;20036;-82
2022/01/05 04:26:54;;;;;;;23.92;8.27;;;;;;;-3.17;100.00;101037.38;5016354;28;20475;-82
2022/01/05 04:29:19;;;;;;;21.20;7.07;;;;;;;-3.33;100.00;101048.69;5009526;28;20051;-80
2022/01/05 04:31:45;;;;;;;17.00;6.38;;;;;;;-3.44;100.00;101048.41;5043949;28;21142;-80
2022/01/05 04:34:11;;;;;;;14.15;6.22;;;;;;;-3.30;100.00;101045.06;5040179;28;20033;-80
2022/01/05 04:36:37;;;;;;;17.77;8.02;;;;;;;-3.15;100.00;101059.16;5008317;28;20102;-81
2022/01/05 04:39:03;;;;;;;24.48;8.25;;;;;;;-3.17;100.00;101061.06;5009025;28;20041;-81
2022/01/05 04:41:29;;;;;;;22.55;7.78;;;;;;;-3.37;100.00;101041.03;5018946;28;20025;-83
2022/01/05 04:43:54;;;;;;;14.68;7.45;;;;;;;-3.48;100.00;101061.78;5033293;28;20048;-80
2022/01/05 04:46:20;;;;;;;14.10;5.65;;;;;;;-3.49;100.00;101055.69;5010499;28;21911;-81
2022/01/05 04:48:46;;;;;;;17.75;6.47;;;;;;;-3.46;100.00;101055.53;5022899;28;20549;-80
2022/01/05 04:51:12;;;;;;;16.63;5.90;;;;;;;-3.46;100.00;101062.56;5038558;28;20029;-80
2022/01/05 04:53:37;;;;;;;16.20;5.47;;;;;;;-3.69;100.00;101059.31;5002144;28;20483;-81
2022/01/05 04:56:03;;;;;;;15.07;5.82;;;;;;;-3.94;100.00;101053.56;5040624;28;20040;-81
2022/01/05 04:58:30;;;;;;;13.07;5.22;;;;;;;-3.96;100.00;101055.44;5041671;28;20494;-83
2022/01/05 05:00:56;;;;;;;15.18;6.15;;;;;;;-4.09;100.00;101063.91;5028481;28;20099;-80
2022/01/05 05:03:22;;;;;;;15.60;5.82;;;;;;;-4.23;100.00;101067.22;5030585;28;20045;-81
2022/01/05 05:05:47;;;;;;;9.57;5.60;;;;;;;-4.32;100.00;101066.78;5042606;28;22327;-82
2022/01/05 05:08:13;;;;;;;15.85;6.47;;;;;;;-4.34;100.00;101074.75;5014179;28;20029;-84
2022/01/05 05:10:39;;;;;;;11.50;5.03;;;;;;;-4.29;100.00;101071.88;5047261;28;20044;-82
2022/01/05 05:13:11;;;;;;;12.15;5.30;;;;;;;-4.26;100.00;101074.34;5026084;28;20037;-82
2022/01/05 05:15:39;;;;;;;10.07;5.75;;;;;;;-4.21;100.00;101089.00;5030402;28;20505;-80
2022/01/05 05:18:05;;;;;;;6.88;2.55;;;;;;;-4.03;100.00;101089.03;5010451;28;20033;-82
2022/01/05 05:20:32;;;;;;;7.68;4.03;;;;;;;-3.85;100.00;101090.75;5030436;28;20043;-82
2022/01/05 05:22:59;;;;;;;8.00;3.90;;;;;;;-3.86;100.00;101078.56;5010268;28;20055;-80
2022/01/05 05:25:25;;;;;;;11.73;5.03;;;;;;;-3.87;100.00;101092.59;5003586;28;20027;-83
2022/01/05 05:27:50;;;;;;;10.65;5.13;;;;;;;-3.94;100.00;101091.22;5007822;28;20045;-82
2022/01/05 05:30:16;;;;;;;12.38;5.60;;;;;;;-4.01;100.00;101092.44;5039250;28;20041;-82
2022/01/05 05:32:41;;;;;;;8.68;4.43;;;;;;;-4.03;100.00;101087.22;5035276;28;20033;-81
2022/01/05 05:35:07;;;;;;;11.50;5.65;;;;;;;-4.16;100.00;101091.38;5005611;28;20033;-83
2022/01/05 05:37:33;;;;;;;11.40;5.20;;;;;;;-4.39;100.00;101089.88;5033881;28;20025;-81
2022/01/05 05:39:59;;;;;;;5.95;3.28;;;;;;;-4.40;100.00;101093.38;5032577;28;20391;-82
2022/01/05 05:42:25;;;;;;;10.18;4.38;;;;;;;-4.32;100.00;101083.38;5004098;28;20035;-83
2022/01/05 05:44:52;;;;;;;8.75;4.20;;;;;;;-4.31;100.00;101081.59;5032746;28;20037;-82
2022/01/05 05:47:18;;;;;;;7.35;4.38;;;;;;;-4.23;100.00;101097.88;5036783;28;20024;-81
2022/01/05 05:49:45;;;;;;;11.13;5.28;;;;;;;-4.12;100.00;101102.59;5007588;28;20502;-83
2022/01/05 05:52:14;;;;;;;10.02;4.30;;;;;;;-4.12;100.00;101103.44;5033550;28;20028;-82
2022/01/05 05:54:40;;;;;;;13.05;3.75;;;;;;;-4.18;100.00;101110.75;5038091;28;20438;-80
2022/01/05 05:57:06;;;;;;;12.13;4.22;;;;;;;-4.10;100.00;101114.75;5030705;28;20048;-81
2022/01/05 05:59:32;;;;;;;6.60;3.33;;;;;;;-4.11;100.00;101115.66;5036914;28;20036;-83
2022/01/05 06:01:58;;;;;;;7.03;4.00;;;;;;;-4.00;100.00;101107.25;5049901;28;20162;-83
2022/01/05 06:04:24;;;;;;;7.10;3.55;;;;;;;-3.86;100.00;101117.97;5035177;28;20025;-81
2022/01/05 06:06:49;;;;;;;11.10;4.45;;;;;;;-3.79;100.00;101107.97;5038771;28;21702;-80
2022/01/05 06:09:15;;;;;;;12.50;4.72;;;;;;;-3.91;100.00;101111.22;5037055;28;20032;-82
2022/01/05 06:11:41;;;;;;;13.70;4.97;;;;;;;-4.00;100.00;101107.25;5007412;28;20036;-81
2022/01/05 06:14:06;;;;;;;4.88;3.38;;;;;;;-4.23;100.00;101090.00;5046107;28;20382;-81
2022/01/05 06:16:32;;;;;;;7.45;4.07;;;;;;;-3.98;100.00;101134.31;5009823;28;20029;-82
2022/01/05 06:18:58;;;;;;;15.30;5.20;;;;;;;-3.99;100.00;101141.34;5041608;28;20071;-81
2022/01/05 06:21:23;;;;;;;7.75;4.00;;;;;;;-4.04;100.00;101131.97;5024247;28;20387;-83
2022/01/05 06:23:49;;;;;;;15.15;5.57;;;;;;;-4.01;100.00;101127.41;5009527;28;20025;-82
2022/01/05 06:26:14;;;;;;;21.70;5.82;;;;;;;-3.88;100.00;101137.34;5015735;28;20125;-80
2022/01/05 06:28:43;;;;;;;3.25;2.30;;;;;;;-3.71;100.00;101150.50;5013522;28;20128;-82
2022/01/05 06:31:08;;;;;;;8.82;3.53;;;;;;;-3.58;100.00;101134.97;5021831;28;20171;-81
2022/01/05 06:33:34;;;;;;;9.80;3.83;;;;;;;-3.54;100.00;101142.66;5024397;28;20043;-83
2022/01/05 06:35:59;;;;;;;5.60;3.17;;;;;;;-3.50;100.00;101140.72;5046452;28;20060;-79
2022/01/05 06:38:25;;;;;;;16.00;6.03;;;;;;;-3.39;100.00;101158.56;5013678;28;20048;-82
2022/01/05 06:40:51;;;;;;;5.68;3.80;;;;;;;-3.35;100.00;101152.25;5039642;28;20036;-81
2022/01/05 06:43:16;;;;;;;8.57;5.30;;;;;;;-3.21;100.00;101152.41;5027590;28;20032;-80
2022/01/05 06:45:42;;;;;;;11.65;6.63;;;;;;;-3.10;100.00;101143.94;5038742;28;20035;-80
2022/01/05 06:48:08;;;;;;;11.73;3.03;;;;;;;-3.04;100.00;101148.91;5024599;28;20075;-82
2022/01/05 06:50:33;;;;;;;8.75;4.00;;;;;;;-2.95;100.00;101151.06;5014886;28;20045;-80
2022/01/05 06:53:01;;;;;;;9.57;4.07;;;;;;;-2.83;100.00;101157.47;5039031;28;20040;-81
2022/01/05 06:55:27;;;;;;;9.50;3.80;;;;;;;-2.69;100.00;101164.66;5032380;28;20041;-82
2022/01/05 06:57:53;;;;;;;5.43;3.20;;;;;;;-2.66;100.00;101164.47;5035396;28;20034;-83
2022/01/05 07:00:20;;;;;;;7.97;4.25;;;;;;;-2.63;100.00;101158.19;5019350;28;20495;-81
2022/01/05 07:02:46;;;;;;;7.75;3.95;;;;;;;-2.61;100.00;101156.34;5040468;28;20029;-80
2022/01/05 07:05:11;;;;;;;9.27;3.42;;;;;;;-2.51;100.00;101152.28;5048937;28;20039;-80
2022/01/05 07:07:38;;;;;;;10.60;3.75;;;;;;;-2.41;100.00;101152.63;5006379;28;20044;-82
2022/01/05 07:10:08;;;;;;;11.02;3.85;;;;;;;-2.34;100.00;101160.13;5010043;28;20036;-81
2022/01/05 07:12:34;;;;;;;11.50;3.65;;;;;;;-2.56;100.00;101128.00;5040763;28;20048;-82
2022/01/05 07:15:00;;;;;;;6.85;3.35;;;;;;;-2.39;100.00;101170.06;5057421;28;20490;-83
2022/01/05 07:17:26;;;;;;;4.80;2.75;;;;;;;-2.49;100.00;101164.44;5035994;28;20040;-79
2022/01/05 07:19:51;;;;;;;7.68;3.33;;;;;;;-2.58;100.00;101153.53;5004387;28;20041;-83
2022/01/05 07:22:17;;;;;;;9.20;3.53;;;;;;;-2.58;100.00;101174.59;5041612;28;21742;-80
2022/01/05 07:24:43;;;;;;;10.40;3.25;;;;;;;-2.58;100.00;101170.19;5028795;28;20518;-83
2022/01/05 07:27:09;;;;;;;9.95;4.18;;;;;;;-2.52;100.00;101180.38;5042806;28;20082;-80
2022/01/05 07:29:34;;;;;;;10.30;3.90;;;;;;;-2.48;100.00;101175.81;5002889;28;20024;-80
2022/01/05 07:32:00;;;;;;;8.38;2.95;;;;;;;-2.35;100.00;101189.19;5036769;28;20060;-80
2022/01/05 07:34:25;;;;;;;5.82;2.55;;;;;;;-2.33;100.00;101196.06;5030893;28;20486;-81
2022/01/05 07:36:51;;;;;;;6.95;3.17;;;;;;;-2.38;100.00;101189.34;5020812;28;20475;-82
2022/01/05 07:39:17;;;;;;;8.65;3.40;;;;;;;-2.33;100.00;101201.34;5010377;28;20041;-81
2022/01/05 07:41:42;;;;;;;7.25;3.53;;;;;;;-2.21;100.00;101199.81;5016276;28;20084;-81
2022/01/05 07:44:08;;;;;;;8.18;3.65;;;;;;;-2.19;100.00;101186.59;5034963;28;20059;-80
2022/01/05 07:46:35;;;;;;;21.98;5.10;;;;;;;-2.02;100.00;101216.31;5048877;28;20174;-80
2022/01/05 07:49:02;;;;;;;15.98;5.00;;;;;;;-2.05;100.00;101207.75;5037105;28;20467;-81
2022/01/05 07:51:29;;;;;;;2.08;1.30;;;;;;;-2.02;100.00;101218.09;5056197;28;20107;-80
2022/01/05 07:53:55;;;;;;;11.27;4.78;;;;;;;-2.03;100.00;101213.78;5043485;28;20036;-80
2022/01/05 07:56:20;;;;;;;9.00;3.83;;;;;;;-2.09;100.00;101201.81;5045811;28;20043;-82
2022/01/05 07:58:47;;;;;;;0.80;0.80;;;;;;;-2.23;100.00;101181.44;5040858;28;20060;-80
2022/01/05 08:01:15;;;;;;;11.30;4.38;;;;;;;-1.97;100.00;101220.50;5072470;28;20111;-80
2022/01/05 08:03:42;;;;;;;8.18;3.35;;;;;;;-1.94;100.00;101217.69;5033256;28;20036;-82
2022/01/05 08:06:08;;;;;;;2.53;1.92;;;;;;;-1.93;100.00;101227.28;5023514;28;20471;-80
2022/01/05 08:08:34;;;;;;;7.10;3.33;;;;;;;-1.97;100.00;101229.25;5023479;28;20045;-79
2022/01/05 08:10:59;;;;;;;12.05;4.00;;;;;;;-2.02;100.00;101226.00;5012986;28;20033;-80
2022/01/05 08:13:25;;;;;;;6.35;3.42;;;;;;;-2.00;100.00;101243.44;5011744;28;20356;-80
2022/01/05 08:15:52;;;;;;;5.78;2.65;;;;;;;-2.08;100.00;101229.00;5030637;28;20037;-87
2022/01/05 08:18:19;;;;;;;10.43;3.75;;;;;;;-1.85;100.00;101254.09;5031478;28;20064;-81
2022/01/05 08:20:45;;;;;;;10.18;3.75;;;;;;;-1.75;100.00;101249.16;5048275;28;20033;-81
2022/01/05 08:23:21;;;;;;;10.40;4.22;;;;;;;-1.82;100.00;101241.59;5031526;28;20125;-80
2022/01/05 08:25:47;;;;;;;8.23;2.55;;;;;;;-1.79;100.00;101267.78;5039281;28;20041;-81
2022/01/05 08:28:13;;;;;;;11.05;4.40;;;;;;;-1.82;100.00;101262.69;5013376;28;20047;-77
2022/01/05 08:30:39;;;;;;;6.45;3.42;;;;;;;-1.75;100.00;101275.53;5029742;28;20043;-79
2022/01/05 08:33:06;;;;;;;6.53;2.72;;;;;;;-1.81;100.00;101269.66;5031109;28;20443;-79
2022/01/05 08:35:33;;;;;;;8.10;4.25;;;;;;;-1.66;100.00;101290.84;5031617;28;20063;-83
2022/01/05 08:37:59;;;;;;;6.97;3.83;;;;;;;-1.63;100.00;101280.13;5061924;28;20116;-80
2022/01/05 08:40:26;;;;;;;9.35;4.43;;;;;;;-1.61;100.00;101283.53;5014696;28;20381;-81
2022/01/05 08:42:53;;;;;;;15.98;5.30;;;;;;;-1.70;100.00;101279.59;5048157;28;20029;-80
2022/01/05 08:45:19;;;;;;;5.55;2.65;;;;;;;-1.65;100.00;101296.03;5049451;28;20032;-81
2022/01/05 08:47:49;;;;;;;15.18;6.03;;;;;;;-1.59;100.00;101287.78;5015978;28;20236;-80
2022/01/05 08:50:17;;;;;;;18.45;6.30;;;;;;;-1.51;100.00;101297.03;5049120;28;20530;-81
2022/01/05 08:52:43;;;;;;;16.42;7.03;;;;;;;-1.58;100.00;101299.19;5049290;28;20116;-79
2022/01/05 08:55:09;;;;;;;12.55;6.00;;;;;;;-1.45;100.00;101309.91;5048398;28;20031;-82
2022/01/05 08:57:35;;;;;;;17.30;6.13;;;;;;;-1.51;100.00;101284.72;5011919;28;20132;-83
2022/01/05 09:00:01;;;;;;;24.65;6.88;;;;;;;-1.44;100.00;101307.19;5030090;28;20112;-83
2022/01/05 09:02:28;;;;;;;22.23;7.65;;;;;;;-1.45;100.00;101297.56;5013393;28;20033;-81
2022/01/05 09:04:54;;;;;;;5.32;1.95;;;;;;;-1.42;100.00;101301.81;5011222;28;20033;-82
2022/01/05 09:07:20;;;;;;;23.50;6.68;;;;;;;-1.43;100.00;101297.47;5032939;28;20041;-81
2022/01/05 09:09:45;;;;;;;20.25;6.85;;;;;;;-1.36;100.00;101304.97;5013561;28;20033;-80
2022/01/05 09:12:11;;;;;;;19.02;7.10;;;;;;;-1.35;100.00;101317.22;5025684;28;20033;-80
2022/01/05 09:14:39;;;;;;;19.77;5.82;;;;;;;-1.35;100.00;101319.00;5048705;28;20195;-80
2022/01/05 09:17:04;;;;;;;11.20;4.50;;;;;;;-1.30;100.00;101326.66;5029063;28;20113;-83
2022/01/05 09:19:30;;;;;;;46.38;13.18;;;;;;;-1.24;100.00;101337.75;5032500;28;20047;-82
2022/01/05 09:21:56;;;;;;;39.00;11.60;;;;;;;-1.21;100.00;101336.72;5010322;28;20372;-82
2022/01/05 09:24:22;;;;;;;44.85;10.48;;;;;;;-1.18;100.00;101332.09;5013502;28;20131;-84
2022/01/05 09:26:48;;;;;;;39.35;12.60;;;;;;;-1.17;100.00;101325.03;5013004;28;20098;-84
2022/01/05 09:29:13;;;;;;;44.95;12.45;;;;;;;-1.06;100.00;101333.19;5030178;28;20676;-81
2022/01/05 09:31:39;;;;;;;35.08;10.93;;;;;;;-0.95;100.00;101353.72;5017143;28;20029;-80
2022/01/05 09:34:05;;;;;;;28.73;9.45;;;;;;;-0.86;100.00;101349.69;5032275;28;20036;-82
2022/01/05 09:36:38;;;;;;;20.48;8.18;;;;;;;-0.82;100.00;101356.50;5031482;28;20025;-84
2022/01/05 09:42:00;;;;;;;18.88;7.75;;;;;;;-0.77;100.00;101354.44;5042956;28;20085;-80
2022/01/05 09:44:48;;;;;;;16.58;7.45;;;;;;;-0.64;100.00;101366.00;5029340;28;20037;-81
2022/01/05 09:47:13;;;;;;;13.55;6.63;;;;;;;-0.59;100.00;101371.03;5027965;28;20079;-85
2022/01/05 09:50:03;;;;;;;13.25;5.15;;;;;;;-0.53;100.00;101379.47;5029164;28;20044;-81
2022/01/05 09:52:34;;;;;;;18.70;8.27;;;;;;;-0.49;100.00;101369.56;5021112;28;20515;-81
2022/01/05 09:55:01;;;;;;;17.65;8.60;;;;;;;-0.39;100.00;101376.00;5033198;28;20045;-80
2022/01/05 09:57:27;;;;;;;23.90;8.63;;;;;;;-0.35;100.00;101377.50;5013508;28;20090;-83
2022/01/05 09:59:55;;;;;;;18.92;9.43;;;;;;;-0.34;100.00;101373.94;5011394;28;20513;-80
2022/01/05 10:02:21;;;;;;;20.90;9.02;;;;;;;-0.37;100.00;101354.75;5048464;28;20478;-82
2022/01/05 10:04:47;;;;;;;15.80;8.90;;;;;;;-0.26;100.00;101362.91;5040910;28;20047;-82
2022/01/05 10:07:13;;;;;;;17.55;7.13;;;;;;;-0.23;100.00;101362.72;5012820;28;20047;-83
2022/01/05 10:09:40;;;;;;;12.25;6.45;;;;;;;-0.10;100.00;101371.63;5060139;28;20041;-83
2022/01/05 10:12:07;;;;;;;16.13;7.07;;;;;;;0.03;100.00;101381.44;5048785;28;20467;-84
2022/01/05 10:14:33;;;;;;;18.48;8.50;;;;;;;0.08;100.00;101374.09;5027685;28;20079;-81
2022/01/05 10:17:10;;;;;;;23.40;9.95;;;;;;;0.14;100.00;101379.88;5028430;28;20415;-84
2022/01/05 10:19:36;;;;;;;25.33;10.32;;;;;;;0.23;100.00;101386.38;5049178;28;20113;-81
2022/01/05 10:22:03;;;;;;;20.50;9.52;;;;;;;0.27;100.00;101384.41;5016416;28;20090;-85
2022/01/05 10:24:43;;;;;;;37.72;10.30;;;;;;;0.42;100.00;101394.91;5037124;28;20103;-82
2022/01/05 10:27:15;;;;;;;27.25;12.98;;;;;;;0.50;100.00;101393.56;5050452;28;20037;-86
2022/01/05 10:29:53;;;;;;;36.67;18.05;;;;;;;0.58;100.00;101409.81;5049403;28;20036;-82
2022/01/05 10:32:19;;;;;;;29.15;13.63;;;;;;;0.61;100.00;101421.06;5031508;28;20028;-83
2022/01/05 10:35:14;;;;;;;40.80;17.55;;;;;;;0.56;100.00;101409.06;5032828;28;20033;-83
2022/01/05 10:37:42;;;;;;;29.38;12.45;;;;;;;0.65;100.00;101419.06;5049307;28;20025;-82
2022/01/05 10:40:14;;;;;;;13.05;7.68;;;;;;;0.74;100.00;101420.28;5032227;28;20037;-81
2022/01/05 10:42:41;;;;;;;38.35;15.25;;;;;;;0.81;100.00;101421.63;5049304;28;20083;-82
2022/01/05 10:45:10;;;;;;;32.25;16.02;;;;;;;0.90;100.00;101418.41;5032335;28;20040;-82
2022/01/05 10:47:36;;;;;;;36.78;14.98;;;;;;;1.02;100.00;101428.19;5016515;28;20453;-83
2022/01/05 10:50:05;;;;;;;34.92;13.90;;;;;;;1.19;100.00;101442.16;5015952;28;20037;-79
2022/01/05 10:52:33;;;;;;;40.60;17.83;;;;;;;1.30;100.00;101429.94;5041301;28;20041;-80
2022/01/05 10:55:13;;;;;;;38.05;17.83;;;;;;;1.48;100.00;101427.00;5033576;28;20044;-80
2022/01/05 10:57:54;;;;;;;36.30;17.02;;;;;;;1.80;100.00;101429.34;5045246;28;20110;-83
2022/01/05 11:00:33;;;;;;;30.05;13.13;;;;;;;2.03;100.00;101443.72;5027827;28;20033;-78
2022/01/05 11:02:59;;;;;;;64.63;19.50;;;;;;;2.05;100.00;101445.31;5050761;28;20041;-79
2022/01/05 11:05:25;;;;;;;49.78;18.05;;;;;;;2.17;100.00;101456.88;5020500;28;20552;-79
2022/01/05 11:07:51;;;;;;;64.53;20.20;;;;;;;2.27;100.00;101455.28;5018175;28;20048;-81
2022/01/05 11:10:20;;;;;;;60.25;22.40;;;;;;;2.38;100.00;101459.88;5014337;28;20041;-80